Devils Elbow, Missouri
Current Conditions -  °F | °C
As of 3:03 AM on Friday 19 Dec 2014 (Local Time) from KTBN Reporting Station
Overcast Overcast  
Wind Chill: 27°   Ceiling: 5500
Heat Index: 32°   Visibility: 10mi
Dew Point: 32°   Wind: 5mph
Humidity: 100%   Direction: 80°E
Pressure: 30.21"   Gusts: NA
Location:  37.85°N, 92.06°W
Report Text: KTBN 190903Z AUTO 08004KT 10SM SCT010 OVC055 00/00 A3021 RMK AO2
Loading
Personal Weather Stations






























Interactive Weather Map New forecast layout! Learn more

10-Day Weather Forecast

Advertisements
Track Severe Weather on mobile